createdAt,value
2023-01-09T00:01:47.496Z,8.70
2023-01-09T00:04:17.761Z,8.60
2023-01-09T00:06:53.644Z,8.70
2023-01-09T00:09:22.765Z,8.70
2023-01-09T00:11:51.788Z,8.60
2023-01-09T00:14:20.544Z,8.70
2023-01-09T00:16:48.835Z,8.70
2023-01-09T00:19:18.305Z,8.70
2023-01-09T00:21:46.245Z,8.70
2023-01-09T00:24:14.581Z,8.80
2023-01-09T00:26:42.900Z,8.80
2023-01-09T00:29:12.234Z,8.80
2023-01-09T00:31:40.408Z,8.70
2023-01-09T00:34:10.580Z,8.70
2023-01-09T00:36:40.324Z,8.70
2023-01-09T00:39:08.608Z,8.80
2023-01-09T00:41:41.080Z,8.70
2023-01-09T00:44:13.859Z,8.80
2023-01-09T00:46:46.622Z,8.80
2023-01-09T00:49:16.427Z,8.80
2023-01-09T00:51:46.105Z,8.80
2023-01-09T00:54:17.746Z,8.80
2023-01-09T00:56:46.750Z,8.80
2023-01-09T00:59:14.911Z,8.80
2023-01-09T01:01:43.333Z,8.80
2023-01-09T01:04:28.975Z,8.80
2023-01-09T01:07:15.984Z,8.80
2023-01-09T01:09:44.513Z,8.80
2023-01-09T01:12:12.874Z,8.80
2023-01-09T01:14:41.335Z,8.80
2023-01-09T01:17:09.629Z,8.80
2023-01-09T01:19:38.017Z,8.80
2023-01-09T01:22:08.467Z,8.70
2023-01-09T01:24:36.663Z,8.70
2023-01-09T01:27:04.893Z,8.70
2023-01-09T01:29:33.002Z,8.70
2023-01-09T01:32:01.175Z,8.70
2023-01-09T01:34:30.089Z,8.70
2023-01-09T01:37:00.884Z,8.70
2023-01-09T01:39:30.453Z,8.70
2023-01-09T01:41:58.568Z,8.60
2023-01-09T01:44:59.131Z,8.60
2023-01-09T01:47:47.832Z,8.70
2023-01-09T01:50:22.003Z,8.70
2023-01-09T01:52:57.685Z,8.70
2023-01-09T01:55:27.365Z,8.70
2023-01-09T01:58:00.295Z,8.70
2023-01-09T02:00:32.595Z,8.70
2023-01-09T02:03:02.439Z,8.70
2023-01-09T02:05:31.352Z,8.70
2023-01-09T02:07:59.546Z,8.70
2023-01-09T02:10:29.648Z,8.70
2023-01-09T02:12:57.722Z,8.70
2023-01-09T02:15:27.334Z,8.80
2023-01-09T02:18:25.639Z,8.80
2023-01-09T02:21:00.749Z,8.70
2023-01-09T02:23:55.743Z,8.70
2023-01-09T02:26:59.835Z,8.70
2023-01-09T02:30:10.826Z,8.70
2023-01-09T02:32:47.669Z,8.70
2023-01-09T02:35:33.454Z,8.70
2023-01-09T02:38:10.702Z,8.70
2023-01-09T02:40:45.331Z,8.80
2023-01-09T02:43:13.831Z,8.80
2023-01-09T02:45:41.760Z,8.70
2023-01-09T02:48:12.852Z,8.80
2023-01-09T02:50:49.429Z,8.70
2023-01-09T02:53:50.606Z,8.80
2023-01-09T02:56:33.207Z,8.80
2023-01-09T02:59:22.208Z,8.80
2023-01-09T03:02:03.155Z,8.80
2023-01-09T03:04:44.801Z,8.70
2023-01-09T03:07:19.219Z,8.70
2023-01-09T03:09:51.272Z,8.80
2023-01-09T03:12:24.769Z,8.70
2023-01-09T03:14:57.411Z,8.90
2023-01-09T03:17:29.361Z,8.70
2023-01-09T03:20:00.595Z,8.70
2023-01-09T03:22:29.294Z,8.70
2023-01-09T03:24:57.296Z,8.70
2023-01-09T03:27:27.038Z,8.70
2023-01-09T03:29:56.640Z,8.70
2023-01-09T03:32:25.375Z,8.70
2023-01-09T03:34:53.456Z,8.70
2023-01-09T03:37:22.810Z,8.70
2023-01-09T03:39:50.721Z,8.70
2023-01-09T03:42:19.134Z,8.70
2023-01-09T03:44:47.160Z,8.70
2023-01-09T03:47:17.242Z,8.70
2023-01-09T03:49:45.339Z,8.60
2023-01-09T03:52:13.949Z,8.60
2023-01-09T03:54:43.982Z,8.50
2023-01-09T03:57:12.315Z,8.50
2023-01-09T03:59:40.576Z,8.40
2023-01-09T04:02:09.072Z,8.40
2023-01-09T04:04:37.401Z,8.40
2023-01-09T04:07:05.785Z,8.40
2023-01-09T04:09:34.142Z,8.40
2023-01-09T04:12:03.505Z,8.40
2023-01-09T04:14:31.582Z,8.40
2023-01-09T04:16:59.563Z,8.30
2023-01-09T04:19:27.641Z,8.30
2023-01-09T04:21:55.489Z,8.30
2023-01-09T04:24:23.743Z,8.30
2023-01-09T04:26:51.782Z,8.20
2023-01-09T04:29:21.209Z,8.20
2023-01-09T04:31:49.087Z,8.20
2023-01-09T04:34:17.233Z,8.20
2023-01-09T04:36:45.559Z,8.10
2023-01-09T04:39:13.630Z,8.10
2023-01-09T04:41:50.931Z,8.10
2023-01-09T04:44:21.997Z,8.00
2023-01-09T04:46:50.769Z,8.00
2023-01-09T04:49:19.389Z,8.10
2023-01-09T04:51:47.647Z,8.00
2023-01-09T04:54:16.784Z,8.00
2023-01-09T04:56:45.152Z,8.10
2023-01-09T04:59:13.669Z,8.10
2023-01-09T05:01:43.536Z,8.10
2023-01-09T05:04:13.031Z,8.00
2023-01-09T05:06:42.219Z,8.00
2023-01-09T05:09:10.363Z,8.10
2023-01-09T05:11:38.546Z,8.10
2023-01-09T05:14:06.673Z,8.10
2023-01-09T05:16:35.027Z,8.20
2023-01-09T05:19:04.679Z,8.20
2023-01-09T05:21:34.462Z,8.10
2023-01-09T05:24:02.518Z,8.10
2023-01-09T05:26:33.077Z,8.00
2023-01-09T05:29:01.405Z,7.90
2023-01-09T05:31:29.567Z,8.30
2023-01-09T05:33:59.263Z,7.70
2023-01-09T05:36:30.344Z,7.70
2023-01-09T05:38:59.480Z,7.60
2023-01-09T05:41:27.619Z,7.50
2023-01-09T05:43:55.753Z,7.40
2023-01-09T05:46:23.821Z,7.30
2023-01-09T05:48:51.954Z,7.20
2023-01-09T05:51:20.062Z,7.10
2023-01-09T05:53:49.510Z,7.10
2023-01-09T05:56:18.136Z,7.10
2023-01-09T05:58:46.303Z,7.10
2023-01-09T06:01:14.852Z,7.10
2023-01-09T06:03:42.966Z,7.10
2023-01-09T06:06:10.933Z,7.20
2023-01-09T06:08:38.869Z,7.20
2023-01-09T06:11:08.281Z,7.20
2023-01-09T06:13:36.436Z,7.30
2023-01-09T06:16:04.619Z,7.40
2023-01-09T06:18:32.592Z,7.40
2023-01-09T06:21:00.515Z,7.40
2023-01-09T06:23:28.533Z,7.50
2023-01-09T06:25:56.537Z,7.50
2023-01-09T06:28:25.882Z,7.50
2023-01-09T06:30:54.170Z,7.50
2023-01-09T06:33:22.333Z,7.40
2023-01-09T06:35:50.304Z,7.40
2023-01-09T06:38:18.621Z,7.40
2023-01-09T06:40:48.408Z,7.30
2023-01-09T06:43:16.621Z,7.30
2023-01-09T06:45:46.374Z,7.30
2023-01-09T06:48:14.653Z,7.30
2023-01-09T06:50:43.083Z,7.30
2023-01-09T06:53:12.138Z,7.30
2023-01-09T06:55:40.592Z,7.30
2023-01-09T06:58:08.988Z,7.30
2023-01-09T07:00:38.578Z,7.30
2023-01-09T07:03:12.911Z,7.30
2023-01-09T07:05:43.444Z,7.30
2023-01-09T07:08:11.416Z,7.20
2023-01-09T07:10:39.250Z,7.20
2023-01-09T07:13:07.465Z,7.20
2023-01-09T07:15:35.656Z,7.10
2023-01-09T07:18:03.991Z,7.20
2023-01-09T07:20:33.251Z,7.20
2023-01-09T07:23:01.991Z,7.30
2023-01-09T07:25:30.238Z,7.30
2023-01-09T07:27:58.621Z,7.30
2023-01-09T07:30:26.798Z,7.40
2023-01-09T07:32:54.677Z,7.40
2023-01-09T07:35:24.290Z,7.40
2023-01-09T07:37:54.371Z,7.50
2023-01-09T07:40:22.855Z,7.50
2023-01-09T07:42:53.252Z,7.50
2023-01-09T07:45:21.812Z,7.50
2023-01-09T07:47:49.902Z,7.50
2023-01-09T07:50:18.172Z,7.40
2023-01-09T07:52:46.852Z,7.40
2023-01-09T07:55:17.629Z,7.40
2023-01-09T07:57:49.868Z,7.40
2023-01-09T08:00:19.148Z,7.40
2023-01-09T08:02:47.471Z,7.40
2023-01-09T08:05:15.948Z,7.40
2023-01-09T08:07:44.361Z,7.40
2023-01-09T08:10:13.221Z,7.30
2023-01-09T08:12:45.287Z,7.40
2023-01-09T08:15:13.834Z,7.30
2023-01-09T08:17:43.471Z,7.30
2023-01-09T08:20:12.482Z,7.30
2023-01-09T08:22:46.635Z,7.30
2023-01-09T08:25:14.879Z,7.40
2023-01-09T08:27:44.527Z,7.50
2023-01-09T08:30:13.698Z,7.50
2023-01-09T08:32:42.579Z,7.50
2023-01-09T08:35:11.633Z,7.60
2023-01-09T08:37:39.519Z,7.70
2023-01-09T08:40:09.117Z,7.70
2023-01-09T08:42:54.788Z,7.80
2023-01-09T08:45:41.315Z,7.80
2023-01-09T08:48:09.577Z,7.90
2023-01-09T08:50:37.671Z,8.00
2023-01-09T08:53:05.992Z,8.00
2023-01-09T08:55:34.229Z,8.00
2023-01-09T08:58:02.900Z,8.10
2023-01-09T09:00:33.595Z,8.10
2023-01-09T09:03:02.733Z,8.20
2023-01-09T09:05:32.055Z,8.20
2023-01-09T09:08:00.845Z,8.20
2023-01-09T09:10:30.517Z,8.20
2023-01-09T09:13:00.567Z,8.30
2023-01-09T09:15:29.735Z,8.30
2023-01-09T09:18:00.839Z,8.40
2023-01-09T09:20:31.146Z,8.40
2023-01-09T09:22:59.519Z,8.40
2023-01-09T09:25:27.832Z,8.50
2023-01-09T09:27:56.772Z,8.50
2023-01-09T09:30:25.378Z,8.50
2023-01-09T09:32:53.450Z,8.50
2023-01-09T09:35:23.113Z,8.60
2023-01-09T09:37:56.181Z,8.50
2023-01-09T09:40:32.383Z,8.50
2023-01-09T09:43:33.486Z,8.40
2023-01-09T09:46:13.104Z,8.40
2023-01-09T09:48:49.306Z,8.40
2023-01-09T09:51:35.273Z,8.40
2023-01-09T09:54:08.849Z,8.40
2023-01-09T09:56:46.967Z,8.30
2023-01-09T09:59:20.405Z,8.30
2023-01-09T10:01:55.099Z,8.30
2023-01-09T10:04:25.607Z,8.30
2023-01-09T10:07:00.531Z,8.30
2023-01-09T10:09:40.343Z,8.40
2023-01-09T10:12:22.714Z,8.40
2023-01-09T10:14:51.194Z,8.30
2023-01-09T10:17:32.171Z,8.30
2023-01-09T10:20:21.916Z,8.30
2023-01-09T10:22:59.476Z,8.50
2023-01-09T10:25:40.109Z,8.70
2023-01-09T10:28:23.235Z,8.90
2023-01-09T10:30:54.288Z,8.80
2023-01-09T10:33:33.909Z,8.90
2023-01-09T10:36:22.575Z,8.90
2023-01-09T10:38:55.475Z,8.80
2023-01-09T10:41:29.372Z,8.70
2023-01-09T10:44:03.740Z,8.80
2023-01-09T10:46:38.668Z,8.90
2023-01-09T10:49:12.746Z,8.80
2023-01-09T10:51:47.165Z,8.70
2023-01-09T10:54:20.277Z,8.80
2023-01-09T10:56:52.182Z,8.80
2023-01-09T10:59:20.380Z,8.90
2023-01-09T11:01:48.948Z,8.90
2023-01-09T11:04:25.330Z,8.70
2023-01-09T11:06:59.697Z,8.70
2023-01-09T11:09:29.154Z,8.50
2023-01-09T11:11:57.403Z,8.50
2023-01-09T11:14:31.325Z,8.30
2023-01-09T11:17:03.082Z,8.30
2023-01-09T11:19:33.407Z,8.30
2023-01-09T11:22:09.929Z,8.10
2023-01-09T11:24:39.569Z,8.20
2023-01-09T11:27:25.244Z,8.30
2023-01-09T11:30:17.738Z,8.30
2023-01-09T11:32:47.291Z,8.30
2023-01-09T11:35:28.406Z,8.40
2023-01-09T11:38:15.593Z,8.50
2023-01-09T11:40:50.786Z,8.40
2023-01-09T11:43:25.606Z,8.50
2023-01-09T11:46:01.170Z,8.40
2023-01-09T11:48:39.925Z,8.60
2023-01-09T11:51:19.569Z,8.60
2023-01-09T11:53:59.253Z,8.60
2023-01-09T11:56:29.103Z,8.50
2023-01-09T11:58:57.064Z,8.40
2023-01-09T12:01:46.896Z,8.40
2023-01-09T12:04:29.788Z,8.40
2023-01-09T12:07:26.715Z,8.40
2023-01-09T12:10:04.212Z,8.40
2023-01-09T12:12:42.071Z,8.50
2023-01-09T12:15:28.041Z,8.50
2023-01-09T12:18:26.642Z,8.60
2023-01-09T12:21:11.811Z,8.60
2023-01-09T12:23:51.937Z,8.70
2023-01-09T12:26:25.269Z,8.60
2023-01-09T12:29:27.199Z,8.70
2023-01-09T12:32:14.333Z,8.70
2023-01-09T12:34:54.335Z,8.80
2023-01-09T12:37:41.647Z,8.80
2023-01-09T12:40:24.389Z,9.00
2023-01-09T12:43:00.526Z,9.10
2023-01-09T12:45:47.574Z,9.10
2023-01-09T12:48:27.636Z,9.30
2023-01-09T12:51:10.299Z,9.40
2023-01-09T12:53:42.320Z,9.50
2023-01-09T12:56:15.054Z,9.60
2023-01-09T12:58:48.310Z,9.80
2023-01-09T13:01:19.641Z,9.80
2023-01-09T13:03:56.918Z,9.90
2023-01-09T13:06:28.680Z,9.90
2023-01-09T13:09:06.516Z,10.00
2023-01-09T13:11:42.062Z,10.10
2023-01-09T13:14:17.313Z,9.90
2023-01-09T13:16:49.904Z,9.80
2023-01-09T13:19:22.281Z,9.60
2023-01-09T13:21:50.893Z,9.60
2023-01-09T13:24:24.036Z,9.60
2023-01-09T13:26:56.897Z,9.70
2023-01-09T13:29:28.781Z,9.80
2023-01-09T13:32:38.399Z,9.50
2023-01-09T13:35:09.617Z,9.60
2023-01-09T13:37:38.536Z,9.50
2023-01-09T13:40:18.205Z,9.50
2023-01-09T13:42:57.124Z,9.60
2023-01-09T13:45:27.200Z,9.60
2023-01-09T13:48:31.681Z,9.50
2023-01-09T13:51:33.751Z,9.40
2023-01-09T13:54:03.291Z,9.40
2023-01-09T13:56:31.383Z,9.40
2023-01-09T13:59:03.057Z,9.40
2023-01-09T14:01:47.945Z,9.40
2023-01-09T14:04:48.700Z,9.30
2023-01-09T14:07:27.254Z,9.20
2023-01-09T14:10:00.541Z,9.20
2023-01-09T14:12:30.544Z,9.20
2023-01-09T14:15:02.091Z,9.20
2023-01-09T14:17:34.987Z,9.10
2023-01-09T14:20:06.868Z,9.00
2023-01-09T14:22:46.195Z,8.90
2023-01-09T14:25:29.486Z,8.80
2023-01-09T14:28:19.673Z,8.70
2023-01-09T14:31:27.123Z,8.60
2023-01-09T14:34:35.119Z,8.60
2023-01-09T14:37:04.042Z,8.70
2023-01-09T14:39:33.959Z,8.70
2023-01-09T14:42:08.237Z,8.70
2023-01-09T14:44:48.438Z,8.80
2023-01-09T14:47:20.835Z,8.80
2023-01-09T14:49:55.145Z,8.90
2023-01-09T14:52:26.061Z,8.80
2023-01-09T14:54:58.967Z,8.80
2023-01-09T14:57:30.214Z,8.80
2023-01-09T15:00:03.017Z,8.80
2023-01-09T15:02:35.428Z,8.70
2023-01-09T15:05:09.308Z,8.70
2023-01-09T15:07:44.467Z,8.70
2023-01-09T15:10:18.285Z,8.70
2023-01-09T15:12:50.777Z,8.60
2023-01-09T15:15:22.332Z,8.60
2023-01-09T15:17:57.119Z,8.60
2023-01-09T15:20:28.939Z,8.60
2023-01-09T15:22:58.149Z,8.60
2023-01-09T15:25:38.194Z,8.50
2023-01-09T15:28:26.389Z,8.40
2023-01-09T15:30:57.886Z,8.40
2023-01-09T15:33:26.518Z,8.40
2023-01-09T15:36:00.258Z,8.40
2023-01-09T15:38:31.975Z,8.30
2023-01-09T15:41:02.146Z,8.30
2023-01-09T15:43:33.259Z,8.20
2023-01-09T15:46:02.661Z,8.20
2023-01-09T15:48:32.902Z,8.00
2023-01-09T15:51:05.545Z,8.00
2023-01-09T15:53:34.184Z,7.90
2023-01-09T15:56:19.468Z,7.80
2023-01-09T15:58:49.989Z,7.80
2023-01-09T16:01:30.921Z,7.70
2023-01-09T16:04:05.719Z,7.70
2023-01-09T16:06:37.084Z,7.60
2023-01-09T16:09:06.337Z,7.50
2023-01-09T16:11:37.253Z,7.40
2023-01-09T16:14:14.845Z,7.30
2023-01-09T16:16:43.145Z,7.30
2023-01-09T16:19:31.453Z,7.30
2023-01-09T16:22:00.826Z,7.20
2023-01-09T16:24:40.329Z,7.20
2023-01-09T16:27:26.081Z,7.20
2023-01-09T16:29:58.211Z,7.30
2023-01-09T16:32:29.558Z,7.30
2023-01-09T16:34:59.886Z,7.30
2023-01-09T16:37:28.827Z,7.30
2023-01-09T16:40:27.594Z,7.30
2023-01-09T16:43:03.472Z,7.30
2023-01-09T16:45:35.752Z,7.30
2023-01-09T16:48:10.779Z,7.30
2023-01-09T16:50:38.997Z,7.30
2023-01-09T16:53:16.105Z,7.30
2023-01-09T16:55:44.312Z,7.30
2023-01-09T16:58:18.287Z,7.30
2023-01-09T17:00:55.728Z,7.20
2023-01-09T17:03:24.930Z,7.20
2023-01-09T17:05:56.056Z,7.20
2023-01-09T17:08:26.490Z,7.20
2023-01-09T17:10:56.307Z,7.20
2023-01-09T17:13:24.991Z,7.20
2023-01-09T17:15:55.827Z,7.30
2023-01-09T17:18:25.863Z,7.10
2023-01-09T17:20:56.452Z,7.20
2023-01-09T17:23:25.694Z,7.20
2023-01-09T17:26:15.321Z,7.20
2023-01-09T17:28:47.430Z,7.10
2023-01-09T17:31:17.165Z,7.10
2023-01-09T17:33:45.301Z,7.10
2023-01-09T17:36:23.665Z,7.10
2023-01-09T17:38:54.922Z,7.20
2023-01-09T17:41:24.241Z,7.20
2023-01-09T17:43:52.477Z,7.20
2023-01-09T17:46:27.283Z,7.20
2023-01-09T17:48:55.743Z,7.20
2023-01-09T17:51:23.898Z,7.30
2023-01-09T17:53:52.240Z,7.20
2023-01-09T17:56:22.805Z,7.30
2023-01-09T17:58:51.215Z,7.20
2023-01-09T18:01:21.457Z,7.20
2023-01-09T18:03:50.664Z,7.20
2023-01-09T18:06:21.832Z,7.30
2023-01-09T18:08:50.115Z,7.30
2023-01-09T18:11:20.578Z,7.30
2023-01-09T18:13:50.091Z,7.30
2023-01-09T18:16:23.817Z,7.30
2023-01-09T18:18:52.141Z,7.30
2023-01-09T18:21:23.006Z,7.40
2023-01-09T18:23:50.917Z,7.30
2023-01-09T18:26:21.489Z,7.30
2023-01-09T18:28:51.592Z,7.40
2023-01-09T18:31:24.016Z,7.40
2023-01-09T18:33:53.440Z,7.30
2023-01-09T18:36:24.017Z,7.30
2023-01-09T18:38:53.481Z,7.30
2023-01-09T18:41:22.563Z,7.30
2023-01-09T18:43:51.411Z,7.30
2023-01-09T18:46:24.233Z,7.30
2023-01-09T18:48:54.555Z,7.30
2023-01-09T18:51:23.421Z,7.30
2023-01-09T18:53:51.864Z,7.40
2023-01-09T18:56:20.850Z,7.30
2023-01-09T18:58:49.100Z,7.40
2023-01-09T19:01:18.056Z,7.40
2023-01-09T19:03:46.342Z,7.40
2023-01-09T19:06:15.619Z,7.40
2023-01-09T19:08:43.860Z,7.40
2023-01-09T19:11:12.014Z,7.40
2023-01-09T19:13:40.266Z,7.30
2023-01-09T19:16:10.701Z,7.30
2023-01-09T19:18:40.073Z,7.40
2023-01-09T19:21:16.133Z,7.40
2023-01-09T19:23:45.222Z,7.40
2023-01-09T19:26:18.063Z,7.40
2023-01-09T19:28:46.677Z,7.40
2023-01-09T19:31:15.832Z,7.50
2023-01-09T19:33:44.506Z,7.50
2023-01-09T19:36:15.431Z,7.50
2023-01-09T19:38:44.071Z,7.50
2023-01-09T19:41:14.613Z,7.50
2023-01-09T19:43:43.251Z,7.50
2023-01-09T19:46:14.310Z,7.50
2023-01-09T19:48:43.448Z,7.60
2023-01-09T19:51:12.736Z,7.50
2023-01-09T19:53:42.218Z,7.50
2023-01-09T19:56:11.628Z,7.50
2023-01-09T19:58:40.012Z,7.50
2023-01-09T20:01:10.652Z,7.40
2023-01-09T20:03:38.855Z,7.40
2023-01-09T20:06:08.596Z,7.40
2023-01-09T20:08:36.702Z,7.30
2023-01-09T20:11:07.038Z,7.30
2023-01-09T20:13:35.194Z,7.30
2023-01-09T20:16:04.469Z,7.30
2023-01-09T20:18:33.769Z,7.30
2023-01-09T20:21:02.255Z,7.30
2023-01-09T20:23:32.660Z,7.20
2023-01-09T20:26:01.177Z,7.20
2023-01-09T20:28:31.112Z,7.20
2023-01-09T20:30:59.520Z,7.20
2023-01-09T20:33:28.136Z,7.30
2023-01-09T20:35:56.302Z,7.30
2023-01-09T20:38:25.462Z,7.30
2023-01-09T20:40:53.748Z,7.40
2023-01-09T20:43:21.917Z,7.30
2023-01-09T20:45:51.352Z,7.40
2023-01-09T20:48:19.416Z,7.30
2023-01-09T20:50:47.450Z,7.30
2023-01-09T20:53:15.557Z,7.30
2023-01-09T20:55:43.559Z,7.90
2023-01-09T20:58:11.714Z,7.30
2023-01-09T21:00:39.962Z,7.30
2023-01-09T21:03:09.547Z,7.30
2023-01-09T21:05:41.644Z,7.30
2023-01-09T21:08:09.563Z,7.30
2023-01-09T21:10:37.626Z,7.30
2023-01-09T21:13:05.923Z,7.30
2023-01-09T21:15:34.991Z,7.30
2023-01-09T21:18:02.935Z,7.30
2023-01-09T21:20:32.629Z,7.30
2023-01-09T21:23:00.617Z,7.30
2023-01-09T21:25:28.810Z,7.40
2023-01-09T21:27:56.924Z,7.30
2023-01-09T21:30:25.227Z,7.40
2023-01-09T21:32:53.652Z,7.40
2023-01-09T21:35:21.944Z,7.40
2023-01-09T21:37:51.663Z,7.40
2023-01-09T21:40:19.828Z,7.30
2023-01-09T21:43:05.340Z,7.30
2023-01-09T21:45:50.643Z,7.30
2023-01-09T21:48:21.393Z,7.30
2023-01-09T21:50:49.669Z,7.30
2023-01-09T21:53:19.123Z,7.20
2023-01-09T21:55:47.148Z,7.20
2023-01-09T21:58:15.388Z,7.20
2023-01-09T22:00:43.359Z,7.10
2023-01-09T22:03:18.476Z,7.10
2023-01-09T22:05:46.766Z,7.10
2023-01-09T22:08:14.854Z,7.10
2023-01-09T22:10:44.285Z,7.30
2023-01-09T22:13:17.443Z,7.10
2023-01-09T22:15:47.500Z,7.10
2023-01-09T22:18:15.737Z,7.10
2023-01-09T22:20:43.731Z,7.10
2023-01-09T22:23:11.729Z,7.10
2023-01-09T22:25:43.166Z,7.10
2023-01-09T22:28:12.575Z,7.10
2023-01-09T22:30:43.951Z,7.10
2023-01-09T22:33:12.397Z,7.10
2023-01-09T22:35:41.830Z,7.20
2023-01-09T22:38:10.631Z,7.20
2023-01-09T22:40:39.237Z,7.10
2023-01-09T22:43:07.861Z,7.10
2023-01-09T22:45:37.333Z,7.10
2023-01-09T22:48:05.999Z,7.10
2023-01-09T22:50:34.065Z,7.10
2023-01-09T22:53:02.070Z,7.20
2023-01-09T22:55:30.067Z,7.20
2023-01-09T22:57:58.338Z,7.10
2023-01-09T23:00:26.491Z,7.20
2023-01-09T23:02:58.229Z,7.30
2023-01-09T23:05:26.370Z,7.20
2023-01-09T23:07:54.738Z,7.20
2023-01-09T23:10:22.748Z,7.20
2023-01-09T23:12:50.872Z,7.20
2023-01-09T23:15:19.500Z,7.20
2023-01-09T23:17:48.013Z,7.20
2023-01-09T23:20:18.903Z,7.20
2023-01-09T23:22:47.623Z,7.20
2023-01-09T23:25:15.987Z,7.20
2023-01-09T23:27:44.181Z,7.20
2023-01-09T23:30:13.197Z,7.20
2023-01-09T23:32:41.669Z,7.30
2023-01-09T23:35:10.499Z,7.30
2023-01-09T23:37:40.092Z,7.30
2023-01-09T23:40:09.304Z,7.40
2023-01-09T23:42:55.004Z,7.40
2023-01-09T23:45:23.383Z,7.40
2023-01-09T23:47:51.867Z,7.40
2023-01-09T23:50:19.927Z,7.40
2023-01-09T23:52:49.800Z,7.40
2023-01-09T23:55:18.137Z,7.40
2023-01-09T23:57:46.123Z,7.40
